This is the latest recevied weather packets stored in our database for station/object OK2JF-6. If no packets are shown the sender has not sent any weather packets the latest 10 day(s).
| Time | Temp. | Humidity | Pressure | Rain* | Wind** | Luminosity | Snow |
|---|---|---|---|---|---|---|---|
| 1777182677 | 5.56° C | 65% | 1091.2 hPa | 0 mm | - | 139 W/m² | - |
| 1777182664 | 5.56° C | 65% | 1091.1 hPa | 0 mm | - | 139 W/m² | - |
| 1777182364 | 5° C | 66% | 1091.3 hPa | 0 mm | - | 136 W/m² | - |
| 1777182004 | 5° C | 66% | 1091.1 hPa | 0 mm | - | 114 W/m² | - |
| 1777181763 | 5° C | 65% | 1091 hPa | 0 mm | - | 108 W/m² | - |
| 1777181643 | 5° C | 65% | 1091.1 hPa | 0 mm | - | 106 W/m² | - |
| 1777181164 | 5° C | 66% | 1090.8 hPa | 0 mm | - | 92 W/m² | - |
| 1777181043 | 5° C | 66% | 1090.9 hPa | 0 mm | - | 90 W/m² | - |
| 1777180863 | 5° C | 66% | 1090.9 hPa | 0 mm | - | 87 W/m² | - |
| 1777180683 | 5° C | 66% | 1090.8 hPa | 0 mm | - | 83 W/m² | - |
| 1777180519 | 5° C | 65% | 1090.6 hPa | 0 mm | - | 79 W/m² | - |
| 1777180503 | 5° C | 65% | 1090.8 hPa | 0 mm | - | 78 W/m² | - |
| 1777179918 | 4.44° C | 68% | 1090.6 hPa | 0 mm | - | 65 W/m² | - |
| 1777179483 | 4.44° C | 67% | 1090.3 hPa | 0 mm | - | 57 W/m² | - |
| 1777179123 | 4.44° C | 68% | 1090.2 hPa | 0 mm | - | 50 W/m² | - |
| 1777179003 | 4.44° C | 68% | 1090.3 hPa | 0 mm | - | 48 W/m² | - |
| 1777178103 | 3.89° C | 69% | 1089.8 hPa | 0 mm | - | 33 W/m² | - |
| 1777177443 | 3.89° C | 70% | 1089.4 hPa | 0 mm | - | 28 W/m² | - |
| 1777177338 | 3.89° C | 70% | 1089.5 hPa | 0 mm | - | 24 W/m² | - |
| 1777177098 | 3.89° C | 70% | 1089.6 hPa | 0 mm | - | 20 W/m² | - |
| 1777177023 | 3.89° C | 70% | 1089.3 hPa | 0 mm | - | 19 W/m² | - |
| 1777176843 | 3.89° C | 70% | 1089.4 hPa | 0 mm | - | 15 W/m² | - |
| 1777176663 | 3.89° C | 70% | 1089.4 hPa | 0 mm | - | 10 W/m² | - |
| 1777176498 | 4.44° C | 70% | 1089.3 hPa | 0 mm | - | 8 W/m² | - |
| 1777176259 | 4.44° C | 70% | 1089.2 hPa | 0 mm | - | 6 W/m² | - |
* Rain latest hour (hover to see other rain measurements)
** Current wind speed in m/s (hover to see current wind gust speed)